createdAt,value
2023-05-12T00:02:04.151Z,13.98
2023-05-12T00:04:41.556Z,13.97
2023-05-12T00:07:10.870Z,13.98
2023-05-12T00:09:41.640Z,13.89
2023-05-12T00:12:11.063Z,13.79
2023-05-12T00:14:40.908Z,13.99
2023-05-12T00:17:14.898Z,13.85
2023-05-12T00:19:44.576Z,13.90
2023-05-12T00:22:17.709Z,13.90
2023-05-12T00:24:47.417Z,13.91
2023-05-12T00:27:16.086Z,13.86
2023-05-12T00:29:49.907Z,14.02
2023-05-12T00:32:23.130Z,13.99
2023-05-12T00:34:56.142Z,13.81
2023-05-12T00:37:25.422Z,13.70
2023-05-12T00:39:56.289Z,13.78
2023-05-12T00:42:26.304Z,13.80
2023-05-12T00:44:57.219Z,13.83
2023-05-12T00:47:32.637Z,13.87
2023-05-12T00:50:06.263Z,13.74
2023-05-12T00:52:42.798Z,13.82
2023-05-12T00:55:13.434Z,13.82
2023-05-12T00:57:42.896Z,13.72
2023-05-12T01:00:14.098Z,13.76
2023-05-12T01:02:44.128Z,13.82
2023-05-12T01:05:17.704Z,13.66
2023-05-12T01:07:48.070Z,13.54
2023-05-12T01:10:23.814Z,13.65
2023-05-12T01:12:51.857Z,13.69
2023-05-12T01:15:22.308Z,13.74
2023-05-12T01:17:57.324Z,13.85
2023-05-12T01:23:24.074Z,13.86
2023-05-12T01:25:54.567Z,13.80
2023-05-12T01:28:29.423Z,13.98
2023-05-12T01:31:00.918Z,13.93
2023-05-12T01:33:33.304Z,13.83
2023-05-12T01:36:03.367Z,13.88
2023-05-12T01:38:31.269Z,13.83
2023-05-12T01:40:59.800Z,13.91
2023-05-12T01:43:31.038Z,13.86
2023-05-12T01:45:59.489Z,13.87
2023-05-12T01:48:27.327Z,13.80
2023-05-12T01:50:56.460Z,13.97
2023-05-12T01:53:25.518Z,13.89
2023-05-12T01:55:53.470Z,13.89
2023-05-12T01:58:27.336Z,13.90
2023-05-12T02:00:56.504Z,13.90
2023-05-12T02:03:25.500Z,13.85
2023-05-12T02:05:53.936Z,13.79
2023-05-12T02:08:26.667Z,13.87
2023-05-12T02:11:06.302Z,13.78
2023-05-12T02:13:35.701Z,13.78
2023-05-12T02:16:07.255Z,13.72
2023-05-12T02:18:38.033Z,13.61
2023-05-12T02:21:09.890Z,13.66
2023-05-12T02:23:39.218Z,13.57
2023-05-12T02:26:09.749Z,13.51
2023-05-12T02:28:39.944Z,13.54
2023-05-12T02:31:12.349Z,13.42
2023-05-12T02:33:43.758Z,13.53
2023-05-12T02:36:14.501Z,13.47
2023-05-12T02:38:42.949Z,13.59
2023-05-12T02:41:15.393Z,13.53
2023-05-12T02:43:44.120Z,13.55
2023-05-12T02:46:16.784Z,13.59
2023-05-12T02:48:45.426Z,13.52
2023-05-12T02:51:20.156Z,13.49
2023-05-12T02:53:53.031Z,13.55
2023-05-12T02:56:25.899Z,13.70
2023-05-12T02:59:01.999Z,13.84
2023-05-12T03:01:34.721Z,13.62
2023-05-12T03:04:02.695Z,13.82
2023-05-12T03:06:33.526Z,13.59
2023-05-12T03:09:01.961Z,13.56
2023-05-12T03:11:33.199Z,13.62
2023-05-12T03:14:04.125Z,13.57
2023-05-12T03:16:40.247Z,13.49
2023-05-12T03:19:11.736Z,13.27
2023-05-12T03:21:41.041Z,13.35
2023-05-12T03:24:12.876Z,13.39
2023-05-12T03:26:43.120Z,13.42
2023-05-12T03:29:13.087Z,13.44
2023-05-12T03:31:44.279Z,13.39
2023-05-12T03:34:15.981Z,13.46
2023-05-12T03:36:45.643Z,13.47
2023-05-12T03:39:21.031Z,13.46
2023-05-12T03:41:51.718Z,13.41
2023-05-12T03:44:21.524Z,13.39
2023-05-12T03:46:52.868Z,13.48
2023-05-12T03:49:23.247Z,13.38
2023-05-12T03:51:53.525Z,13.29
2023-05-12T03:54:22.531Z,13.30
2023-05-12T03:56:53.703Z,13.34
2023-05-12T03:59:22.880Z,13.34
2023-05-12T04:01:54.446Z,13.40
2023-05-12T04:04:23.675Z,13.32
2023-05-12T04:06:54.715Z,13.35
2023-05-12T04:09:24.450Z,13.51
2023-05-12T04:11:59.809Z,13.37
2023-05-12T04:14:41.795Z,13.43
2023-05-12T04:17:18.551Z,13.40
2023-05-12T04:19:53.626Z,13.37
2023-05-12T04:22:25.711Z,13.52
2023-05-12T04:24:54.530Z,13.38
2023-05-12T04:27:27.774Z,13.44
2023-05-12T04:29:55.753Z,13.53
2023-05-12T04:32:25.294Z,13.42
2023-05-12T04:34:56.219Z,13.60
2023-05-12T04:37:28.207Z,13.49
2023-05-12T04:39:58.335Z,13.61
2023-05-12T04:42:26.317Z,13.57
2023-05-12T04:47:51.868Z,13.84
2023-05-12T04:50:20.870Z,13.76
2023-05-12T04:52:51.507Z,13.71
2023-05-12T04:55:22.882Z,13.75
2023-05-12T04:57:54.341Z,13.82
2023-05-12T05:00:39.238Z,13.68
2023-05-12T05:03:08.877Z,13.84
2023-05-12T05:05:38.810Z,13.80
2023-05-12T05:08:08.738Z,13.83
2023-05-12T05:10:37.662Z,13.65
2023-05-12T05:13:06.829Z,13.65
2023-05-12T05:15:35.201Z,13.74
2023-05-12T05:18:03.655Z,13.67
2023-05-12T05:20:40.686Z,13.50
2023-05-12T05:23:11.810Z,13.62
2023-05-12T05:25:40.918Z,13.60
2023-05-12T05:28:09.131Z,13.54
2023-05-12T05:30:39.649Z,13.51
2023-05-12T05:33:13.362Z,13.59
2023-05-12T05:35:43.228Z,13.54
2023-05-12T05:38:13.886Z,13.66
2023-05-12T05:40:52.877Z,13.69
2023-05-12T05:43:30.381Z,13.76
2023-05-12T05:46:09.793Z,13.77
2023-05-12T05:48:41.128Z,13.74
2023-05-12T05:51:13.139Z,14.02
2023-05-12T05:53:45.205Z,14.01
2023-05-12T05:56:15.901Z,14.25
2023-05-12T05:58:48.573Z,14.20
2023-05-12T06:01:21.834Z,14.16
2023-05-12T06:03:49.807Z,14.15
2023-05-12T06:06:22.379Z,14.26
2023-05-12T06:08:51.487Z,14.26
2023-05-12T06:11:23.417Z,14.26
2023-05-12T06:13:53.619Z,14.26
2023-05-12T06:16:21.925Z,14.05
2023-05-12T06:18:51.418Z,14.07
2023-05-12T06:21:20.753Z,14.02
2023-05-12T06:23:51.612Z,14.15
2023-05-12T06:26:25.017Z,14.54
2023-05-12T06:28:54.577Z,14.44
2023-05-12T06:31:26.298Z,14.71
2023-05-12T06:33:54.360Z,14.58
2023-05-12T06:36:48.374Z,14.51
2023-05-12T06:39:21.234Z,14.44
2023-05-12T06:41:53.899Z,14.35
2023-05-12T06:44:27.146Z,14.59
2023-05-12T06:46:55.440Z,14.95
2023-05-12T06:49:24.877Z,15.02
2023-05-12T06:51:56.745Z,15.20
2023-05-12T06:54:24.914Z,15.17
2023-05-12T06:56:52.697Z,15.07
2023-05-12T06:59:22.044Z,15.16
2023-05-12T07:01:49.841Z,15.10
2023-05-12T07:04:20.736Z,15.21
2023-05-12T07:06:48.838Z,15.04
2023-05-12T07:09:18.735Z,14.94
2023-05-12T07:11:49.730Z,14.67
2023-05-12T07:14:18.725Z,14.65
2023-05-12T07:16:49.023Z,14.74
2023-05-12T07:19:16.875Z,14.99
2023-05-12T07:21:44.942Z,14.82
2023-05-12T07:24:18.827Z,15.08
2023-05-12T07:26:50.438Z,14.78
2023-05-12T07:29:28.380Z,14.85
2023-05-12T07:32:00.250Z,14.79
2023-05-12T07:34:28.214Z,14.83
2023-05-12T07:37:02.436Z,14.95
2023-05-12T07:39:32.592Z,14.91
2023-05-12T07:42:02.070Z,14.81
2023-05-12T07:44:30.915Z,14.72
2023-05-12T07:46:58.762Z,14.81
2023-05-12T07:49:30.191Z,15.27
2023-05-12T07:51:59.901Z,15.20
2023-05-12T07:54:27.791Z,15.13
2023-05-12T07:56:56.448Z,15.52
2023-05-12T07:59:26.419Z,15.40
2023-05-12T08:01:57.146Z,15.61
2023-05-12T08:04:27.025Z,15.82
2023-05-12T08:06:56.968Z,15.56
2023-05-12T08:09:29.316Z,15.64
2023-05-12T08:11:57.222Z,16.19
2023-05-12T08:14:27.828Z,16.14
2023-05-12T08:19:42.074Z,16.25
2023-05-12T08:22:11.158Z,16.59
2023-05-12T08:24:41.403Z,17.07
2023-05-12T08:27:13.990Z,16.86
2023-05-12T08:29:45.069Z,17.09
2023-05-12T08:32:15.478Z,17.33
2023-05-12T08:34:48.271Z,17.45
2023-05-12T08:37:24.854Z,16.78
2023-05-12T08:39:53.167Z,17.04
2023-05-12T08:42:31.890Z,17.54
2023-05-12T08:45:02.377Z,17.89
2023-05-12T08:47:32.390Z,18.27
2023-05-12T08:50:01.944Z,17.56
2023-05-12T08:52:36.296Z,17.74
2023-05-12T08:55:08.444Z,18.05
2023-05-12T08:57:47.633Z,17.64
2023-05-12T09:00:21.026Z,17.50
2023-05-12T09:02:54.420Z,17.65
2023-05-12T09:05:23.584Z,17.69
2023-05-12T09:07:56.156Z,17.76
2023-05-12T09:10:35.446Z,18.55
2023-05-12T09:13:08.883Z,18.23
2023-05-12T09:15:42.414Z,18.34
2023-05-12T09:18:14.981Z,18.73
2023-05-12T09:20:45.363Z,18.65
2023-05-12T09:23:17.621Z,18.68
2023-05-12T09:25:47.079Z,18.94
2023-05-12T09:28:23.495Z,18.40
2023-05-12T09:30:57.486Z,18.45
2023-05-12T09:33:26.675Z,18.50
2023-05-12T09:35:55.957Z,18.87
2023-05-12T09:38:26.930Z,18.70
2023-05-12T09:40:54.957Z,18.55
2023-05-12T09:43:24.814Z,18.88
2023-05-12T09:45:55.773Z,19.25
2023-05-12T09:48:26.891Z,19.30
2023-05-12T09:50:55.991Z,19.53
2023-05-12T09:53:24.362Z,19.32
2023-05-12T09:55:52.667Z,19.15
2023-05-12T09:58:22.435Z,19.17
2023-05-12T10:01:13.452Z,19.17
2023-05-12T10:03:52.505Z,19.74
2023-05-12T10:06:26.888Z,19.95
2023-05-12T10:09:04.406Z,19.49
2023-05-12T10:11:35.680Z,19.42
2023-05-12T10:14:08.564Z,19.21
2023-05-12T10:16:37.608Z,18.64
2023-05-12T10:19:10.145Z,18.78
2023-05-12T10:21:39.993Z,18.23
2023-05-12T10:24:08.774Z,18.47
2023-05-12T10:29:34.789Z,18.05
2023-05-12T10:32:04.149Z,18.17
2023-05-12T10:34:37.721Z,17.85
2023-05-12T10:37:14.016Z,18.46
2023-05-12T10:39:49.236Z,18.36
2023-05-12T10:42:25.027Z,18.23
2023-05-12T10:44:59.403Z,18.47
2023-05-12T10:47:40.889Z,18.68
2023-05-12T10:50:13.746Z,18.47
2023-05-12T10:52:53.768Z,18.53
2023-05-12T10:55:34.026Z,18.60
2023-05-12T10:58:07.371Z,18.79
2023-05-12T11:00:46.834Z,18.84
2023-05-12T11:03:20.506Z,18.83
2023-05-12T11:06:06.678Z,18.72
2023-05-12T11:08:38.065Z,18.67
2023-05-12T11:11:08.937Z,18.29
2023-05-12T11:13:37.431Z,18.35
2023-05-12T11:16:07.100Z,18.64
2023-05-12T11:18:35.314Z,18.64
2023-05-12T11:21:12.751Z,19.04
2023-05-12T11:23:48.495Z,19.19
2023-05-12T11:26:19.486Z,19.21
2023-05-12T11:28:48.670Z,18.96
2023-05-12T11:31:19.945Z,18.86
2023-05-12T11:34:01.290Z,18.92
2023-05-12T11:36:46.646Z,18.52
2023-05-12T11:39:17.200Z,18.30
2023-05-12T11:41:48.362Z,18.95
2023-05-12T11:44:17.829Z,18.96
2023-05-12T11:46:58.907Z,18.52
2023-05-12T11:49:30.416Z,18.63
2023-05-12T11:52:07.301Z,18.27
2023-05-12T11:54:37.670Z,17.97
2023-05-12T11:57:06.710Z,17.74
2023-05-12T11:59:36.300Z,17.28
2023-05-12T12:02:05.377Z,17.36
2023-05-12T12:04:35.781Z,17.42
2023-05-12T12:07:11.065Z,17.40
2023-05-12T12:09:43.341Z,17.48
2023-05-12T12:12:12.761Z,17.62
2023-05-12T12:14:42.768Z,17.91
2023-05-12T12:17:17.211Z,18.15
2023-05-12T12:19:47.727Z,18.19
2023-05-12T12:22:18.315Z,18.55
2023-05-12T12:24:46.965Z,18.74
2023-05-12T12:27:15.353Z,19.06
2023-05-12T12:29:45.851Z,19.23
2023-05-12T12:32:13.714Z,19.53
2023-05-12T12:34:46.400Z,19.91
2023-05-12T12:37:16.414Z,20.20
2023-05-12T12:39:47.734Z,20.08
2023-05-12T12:42:19.312Z,19.94
2023-05-12T12:44:52.571Z,19.87
2023-05-12T12:47:21.298Z,20.60
2023-05-12T12:49:50.825Z,20.18
2023-05-12T12:52:22.620Z,20.23
2023-05-12T12:54:52.124Z,20.25
2023-05-12T12:57:23.296Z,19.96
2023-05-12T12:59:51.123Z,19.98
2023-05-12T13:02:20.272Z,19.70
2023-05-12T13:04:49.880Z,19.66
2023-05-12T13:07:20.555Z,19.53
2023-05-12T13:09:48.706Z,19.47
2023-05-12T13:12:18.501Z,19.46
2023-05-12T13:14:47.926Z,19.40
2023-05-12T13:17:16.944Z,19.43
2023-05-12T13:19:46.219Z,19.52
2023-05-12T13:22:14.690Z,19.64
2023-05-12T13:24:44.634Z,19.54
2023-05-12T13:27:18.996Z,19.42
2023-05-12T13:29:48.313Z,19.68
2023-05-12T13:32:21.550Z,20.10
2023-05-12T13:34:51.622Z,20.45
2023-05-12T13:37:19.763Z,20.24
2023-05-12T13:39:48.301Z,19.96
2023-05-12T13:42:17.931Z,20.18
2023-05-12T13:44:48.642Z,20.31
2023-05-12T13:47:17.021Z,20.91
2023-05-12T13:49:45.507Z,20.31
2023-05-12T13:52:14.019Z,20.63
2023-05-12T13:54:48.688Z,19.99
2023-05-12T13:57:17.852Z,20.34
2023-05-12T13:59:45.926Z,20.40
2023-05-12T14:02:15.922Z,20.58
2023-05-12T14:04:44.187Z,20.54
2023-05-12T14:07:14.944Z,20.41
2023-05-12T14:09:44.528Z,20.61
2023-05-12T14:12:21.746Z,20.71
2023-05-12T14:14:52.032Z,20.88
2023-05-12T14:17:21.332Z,20.85
2023-05-12T14:19:50.989Z,21.30
2023-05-12T14:22:26.456Z,21.86
2023-05-12T14:24:56.685Z,21.32
2023-05-12T14:27:29.051Z,22.01
2023-05-12T14:29:59.326Z,21.58
2023-05-12T14:32:27.652Z,21.91
2023-05-12T14:34:56.393Z,22.09
2023-05-12T14:37:24.415Z,22.13
2023-05-12T14:39:55.247Z,22.38
2023-05-12T14:42:26.494Z,21.90
2023-05-12T14:44:54.848Z,21.44
2023-05-12T14:47:27.219Z,21.54
2023-05-12T14:49:56.067Z,21.67
2023-05-12T14:52:24.413Z,21.97
2023-05-12T14:54:52.218Z,22.70
2023-05-12T14:57:21.236Z,23.15
2023-05-12T14:59:52.866Z,23.05
2023-05-12T15:02:21.375Z,23.00
2023-05-12T15:04:51.353Z,22.89
2023-05-12T15:07:22.452Z,22.95
2023-05-12T15:09:52.935Z,22.66
2023-05-12T15:12:21.715Z,22.09
2023-05-12T15:14:49.957Z,22.02
2023-05-12T15:17:18.491Z,21.35
2023-05-12T15:19:46.896Z,21.95
2023-05-12T15:22:16.072Z,22.62
2023-05-12T15:24:44.118Z,21.68
2023-05-12T15:27:14.811Z,21.31
2023-05-12T15:29:43.100Z,21.28
2023-05-12T15:32:11.092Z,20.81
2023-05-12T15:34:39.433Z,20.83
2023-05-12T15:37:08.180Z,20.36
2023-05-12T15:39:38.119Z,20.38
2023-05-12T15:42:09.456Z,19.95
2023-05-12T15:44:41.033Z,19.92
2023-05-12T15:47:14.479Z,19.84
2023-05-12T15:49:47.433Z,19.68
2023-05-12T15:52:16.588Z,19.64
2023-05-12T15:54:45.722Z,19.73
2023-05-12T15:57:14.402Z,19.65
2023-05-12T15:59:43.100Z,20.06
2023-05-12T16:02:11.345Z,20.02
2023-05-12T16:04:39.451Z,20.00
2023-05-12T16:07:07.453Z,19.95
2023-05-12T16:09:37.976Z,20.30
2023-05-12T16:12:09.329Z,20.58
2023-05-12T16:14:38.675Z,20.02
2023-05-12T16:17:06.572Z,19.95
2023-05-12T16:19:35.647Z,19.83
2023-05-12T16:22:03.510Z,20.03
2023-05-12T16:24:31.422Z,19.56
2023-05-12T16:27:00.247Z,19.99
2023-05-12T16:29:31.420Z,19.95
2023-05-12T16:31:59.392Z,19.75
2023-05-12T16:34:27.789Z,19.49
2023-05-12T16:36:55.968Z,19.57
2023-05-12T16:39:24.469Z,19.75
2023-05-12T16:41:52.610Z,19.59
2023-05-12T16:44:22.636Z,19.58
2023-05-12T16:46:52.463Z,19.23
2023-05-12T16:49:20.559Z,19.05
2023-05-12T16:51:48.577Z,19.49
2023-05-12T16:54:18.319Z,19.69
2023-05-12T16:56:47.436Z,19.46
2023-05-12T16:59:15.784Z,19.09
2023-05-12T17:01:46.348Z,19.28
2023-05-12T17:04:16.317Z,19.11
2023-05-12T17:06:44.698Z,19.44
2023-05-12T17:09:13.228Z,19.36
2023-05-12T17:11:41.460Z,19.18
2023-05-12T17:14:10.794Z,19.26
2023-05-12T17:16:40.763Z,19.08
2023-05-12T17:21:44.321Z,18.95
2023-05-12T17:24:12.854Z,18.68
2023-05-12T17:26:40.707Z,18.74
2023-05-12T17:29:12.270Z,18.60
2023-05-12T17:31:40.741Z,18.54
2023-05-12T17:34:11.566Z,18.49
2023-05-12T17:36:42.034Z,18.34
2023-05-12T17:39:10.512Z,18.28
2023-05-12T17:41:38.698Z,18.27
2023-05-12T17:44:08.628Z,18.33
2023-05-12T17:46:37.164Z,18.24
2023-05-12T17:49:05.362Z,17.94
2023-05-12T17:51:35.393Z,18.17
2023-05-12T17:54:04.931Z,17.97
2023-05-12T17:56:33.817Z,17.86
2023-05-12T17:59:02.659Z,17.93
2023-05-12T18:01:30.625Z,17.93
2023-05-12T18:04:01.008Z,17.94
2023-05-12T18:06:29.418Z,17.89
2023-05-12T18:08:59.016Z,17.71
2023-05-12T18:12:31.007Z,17.80
2023-05-12T18:15:02.728Z,17.77
2023-05-12T18:17:32.335Z,17.73
2023-05-12T18:20:00.290Z,17.77
2023-05-12T18:22:28.408Z,17.73
2023-05-12T18:24:56.695Z,17.75
2023-05-12T18:27:24.723Z,17.60
2023-05-12T18:29:52.798Z,17.51
2023-05-12T18:32:22.916Z,17.32
2023-05-12T18:34:53.135Z,17.25
2023-05-12T18:37:21.906Z,17.32
2023-05-12T18:39:50.171Z,17.29
2023-05-12T18:42:19.192Z,17.18
2023-05-12T18:44:47.031Z,17.25
2023-05-12T18:47:15.927Z,17.15
2023-05-12T18:49:45.269Z,16.77
2023-05-12T18:52:13.474Z,16.93
2023-05-12T18:54:42.454Z,16.87
2023-05-12T18:57:12.371Z,17.10
2023-05-12T18:59:40.220Z,17.34
2023-05-12T19:02:10.029Z,17.11
2023-05-12T19:04:39.128Z,17.00
2023-05-12T19:07:10.174Z,16.98
2023-05-12T19:09:41.327Z,16.84
2023-05-12T19:12:12.237Z,16.80
2023-05-12T19:14:41.960Z,16.62
2023-05-12T19:17:12.166Z,16.80
2023-05-12T19:19:45.327Z,16.75
2023-05-12T19:22:19.670Z,17.14
2023-05-12T19:24:50.676Z,16.95
2023-05-12T19:27:21.537Z,16.66
2023-05-12T19:29:53.829Z,16.42
2023-05-12T19:32:22.720Z,16.04
2023-05-12T19:34:51.521Z,16.31
2023-05-12T19:37:22.733Z,16.28
2023-05-12T19:39:51.559Z,16.16
2023-05-12T19:42:19.720Z,16.10
2023-05-12T19:44:54.261Z,16.17
2023-05-12T19:47:25.188Z,16.11
2023-05-12T19:49:56.929Z,15.94
2023-05-12T19:52:30.610Z,15.86
2023-05-12T19:54:58.823Z,15.83
2023-05-12T19:57:31.069Z,15.52
2023-05-12T20:00:00.090Z,15.64
2023-05-12T20:02:30.879Z,15.63
2023-05-12T20:05:03.858Z,15.25
2023-05-12T20:07:34.414Z,15.10
2023-05-12T20:10:03.713Z,15.13
2023-05-12T20:12:32.123Z,14.77
2023-05-12T20:15:00.227Z,14.67
2023-05-12T20:17:30.104Z,14.85
2023-05-12T20:20:04.067Z,14.67
2023-05-12T20:22:34.729Z,14.52
2023-05-12T20:25:04.979Z,14.70
2023-05-12T20:27:41.826Z,14.65
2023-05-12T20:30:13.138Z,14.66
2023-05-12T20:32:44.123Z,14.60
2023-05-12T20:35:14.173Z,14.62
2023-05-12T20:37:42.618Z,14.55
2023-05-12T20:40:14.699Z,14.65
2023-05-12T20:42:44.634Z,14.51
2023-05-12T20:45:15.780Z,14.52
2023-05-12T20:47:47.561Z,14.53
2023-05-12T20:50:20.123Z,14.37
2023-05-12T20:52:52.976Z,14.24
2023-05-12T20:55:24.589Z,14.10
2023-05-12T20:57:53.272Z,14.00
2023-05-12T21:00:22.959Z,14.00
2023-05-12T21:02:56.128Z,13.99
2023-05-12T21:05:25.154Z,13.90
2023-05-12T21:07:55.999Z,13.86
2023-05-12T21:10:30.969Z,13.91
2023-05-12T21:13:20.392Z,13.85
2023-05-12T21:15:48.457Z,13.69
2023-05-12T21:18:22.977Z,13.71
2023-05-12T21:20:51.623Z,13.57
2023-05-12T21:23:21.215Z,13.65
2023-05-12T21:25:53.998Z,13.32
2023-05-12T21:28:22.384Z,13.60
2023-05-12T21:30:50.318Z,13.58
2023-05-12T21:33:21.164Z,13.55
2023-05-12T21:35:52.524Z,13.47
2023-05-12T21:38:20.742Z,13.41
2023-05-12T21:40:51.942Z,13.30
2023-05-12T21:43:22.177Z,13.38
2023-05-12T21:45:50.854Z,13.31
2023-05-12T21:48:19.625Z,13.31
2023-05-12T21:51:01.344Z,13.24
2023-05-12T21:53:30.347Z,13.21
2023-05-12T21:56:01.998Z,13.18
2023-05-12T21:58:32.391Z,13.15
2023-05-12T22:01:05.641Z,12.97
2023-05-12T22:06:21.090Z,13.12
2023-05-12T22:09:00.938Z,13.08
2023-05-12T22:11:34.698Z,13.04
2023-05-12T22:14:04.265Z,13.02
2023-05-12T22:16:43.405Z,13.02
2023-05-12T22:19:14.381Z,12.93
2023-05-12T22:21:43.588Z,12.91
2023-05-12T22:24:11.955Z,12.77
2023-05-12T22:26:41.460Z,12.87
2023-05-12T22:29:11.642Z,12.77
2023-05-12T22:31:40.928Z,12.69
2023-05-12T22:34:10.191Z,12.66
2023-05-12T22:36:38.585Z,12.75
2023-05-12T22:39:07.977Z,13.01
2023-05-12T22:41:39.398Z,12.91
2023-05-12T22:44:10.122Z,12.89
2023-05-12T22:46:38.453Z,12.84
2023-05-12T22:49:10.319Z,12.93
2023-05-12T22:51:40.149Z,13.14
2023-05-12T22:54:11.363Z,13.26
2023-05-12T22:56:44.754Z,13.34
2023-05-12T22:59:20.285Z,13.44
2023-05-12T23:01:57.916Z,13.61
2023-05-12T23:04:29.576Z,13.71
2023-05-12T23:07:01.078Z,13.87
2023-05-12T23:09:33.139Z,14.13
2023-05-12T23:12:02.588Z,14.00
2023-05-12T23:14:37.328Z,14.10
2023-05-12T23:17:07.820Z,14.02
2023-05-12T23:19:36.980Z,14.10
2023-05-12T23:22:12.078Z,14.11
2023-05-12T23:24:41.719Z,14.16
2023-05-12T23:27:10.504Z,14.14
2023-05-12T23:29:41.980Z,14.05
2023-05-12T23:32:10.369Z,13.96
2023-05-12T23:34:43.001Z,14.07
2023-05-12T23:37:12.940Z,13.97
2023-05-12T23:39:41.353Z,14.06
2023-05-12T23:42:14.945Z,14.07
2023-05-12T23:44:46.463Z,14.06
2023-05-12T23:47:15.071Z,14.26
2023-05-12T23:49:46.554Z,14.30
2023-05-12T23:52:17.232Z,14.11
2023-05-12T23:54:47.003Z,14.06
2023-05-12T23:57:15.800Z,14.12
2023-05-12T23:59:52.059Z,13.94
